PWSweather.com
Personal Weather Stations
Station Observations
KMIEASTT1
Tawas Bay, East Tawas, MI 48730

Tawas BayEast Tawas, MI 48730

Lat: 44.28, Lon: -83.48

Elevation: 600

Station Type: Davis VantagePro

http://www.tawasbayweather.com

High Low Average
Temperature 24.5°F-4.2°F 17.0°F-8.3°F 21.2°F-6.0°F
Dew Point 20.4°F-6.4°F 10.6°F-11.9°F 14.7°F-9.6°F
Winds 20.0 mph -32.2 mph - Calm Calm 6.0 mph 9.7 mph
Wind Gusts 21.0 mph33.8 mph -- 8.7 mph14.0 mph
Humidity 85% 63% 76%
Pressure 30.92 in1047.10 in 30.58 in1035.60 in -
Precipitation 0.00 in0.00 in - -
Hour Temp Dew Point Humidity Winds Wind Gusts Pressure Precip Precip Rate Daily Precip Total
12:00 AM 19.0°F-7.2°C 12.4°F-10.9°C 75% 13.0 mph SE20.9 kmh SE 15.0 mph24.1 kmh 30.81 in1043.3 mb 0.00 in0.0 mm 0.00 in0.0 mm 0.00 in0.0 mm
12:15 AM 19.0°F-7.2°C 12.1°F-11.1°C 74% 15.0 mph SE24.1 kmh SE 19.0 mph30.6 kmh 30.81 in1043.3 mb 0.00 in0.0 mm 0.00 in0.0 mm 0.00 in0.0 mm
12:30 AM 17.9°F-7.8°C 11.3°F-11.5°C 75% 3.0 mph NNW4.8 kmh NNW 6.0 mph9.7 kmh 30.81 in1043.3 mb 0.00 in0.0 mm 0.00 in0.0 mm 0.00 in0.0 mm
12:45 AM 17.9°F-7.8°C 11.6°F-11.3°C 76% 4.0 mph NNW6.4 kmh NNW 6.0 mph9.7 kmh 30.81 in1043.3 mb 0.00 in0.0 mm 0.00 in0.0 mm 0.00 in0.0 mm
01:00 AM 18.0°F-7.8°C 11.4°F-11.4°C 75% 6.0 mph NNW9.7 kmh NNW 8.0 mph12.9 kmh 30.81 in1043.3 mb 0.00 in0.0 mm 0.00 in0.0 mm 0.00 in0.0 mm
01:15 AM 18.1°F-7.7°C 11.8°F-11.2°C 76% 2.0 mph NNW3.2 kmh NNW 6.0 mph9.7 kmh 30.82 in1043.7 mb 0.00 in0.0 mm 0.00 in0.0 mm 0.00 in0.0 mm
01:30 AM 18.1°F-7.7°C 11.8°F-11.2°C 76% 5.0 mph N8.0 kmh N 6.0 mph9.7 kmh 30.82 in1043.7 mb 0.00 in0.0 mm 0.00 in0.0 mm 0.00 in0.0 mm
01:45 AM 18.0°F-7.8°C 11.4°F-11.4°C 75% 6.0 mph N9.7 kmh N 6.0 mph9.7 kmh 30.82 in1043.7 mb 0.00 in0.0 mm 0.00 in0.0 mm 0.00 in0.0 mm
02:00 AM 18.0°F-7.8°C 11.1°F-11.6°C 74% Calm Calm 8.0 mph12.9 kmh 30.83 in1044.0 mb 0.00 in0.0 mm 0.00 in0.0 mm 0.00 in0.0 mm
02:15 AM 18.1°F-7.7°C 11.5°F-11.4°C 75% 4.0 mph NW6.4 kmh NW 10.0 mph16.1 kmh 30.83 in1044.0 mb 0.00 in0.0 mm 0.00 in0.0 mm 0.00 in0.0 mm
02:30 AM 18.1°F-7.7°C 11.5°F-11.4°C 75% 2.0 mph NNW3.2 kmh NNW 8.0 mph12.9 kmh 30.83 in1044.0 mb 0.00 in0.0 mm 0.00 in0.0 mm 0.00 in0.0 mm
02:45 AM 18.0°F-7.8°C 11.4°F-11.4°C 75% 3.0 mph N4.8 kmh N 7.0 mph11.3 kmh 30.84 in1044.4 mb 0.00 in0.0 mm 0.00 in0.0 mm 0.00 in0.0 mm
03:00 AM 18.1°F-7.7°C 11.8°F-11.2°C 76% 3.0 mph NNW4.8 kmh NNW 5.0 mph8.0 kmh 30.84 in1044.4 mb 0.00 in0.0 mm 0.00 in0.0 mm 0.00 in0.0 mm
03:15 AM 18.1°F-7.7°C 11.2°F-11.6°C 74% 3.0 mph NNW4.8 kmh NNW 9.0 mph14.5 kmh 30.85 in1044.7 mb 0.00 in0.0 mm 0.00 in0.0 mm 0.00 in0.0 mm
03:30 AM 18.2°F-7.7°C 11.3°F-11.5°C 74% 3.0 mph NW4.8 kmh NW 6.0 mph9.7 kmh 30.86 in1045.0 mb 0.00 in0.0 mm 0.00 in0.0 mm 0.00 in0.0 mm
03:45 AM 18.2°F-7.7°C 11.6°F-11.3°C 75% 2.0 mph NW3.2 kmh NW 7.0 mph11.3 kmh 30.86 in1045.0 mb 0.00 in0.0 mm 0.00 in0.0 mm 0.00 in0.0 mm
04:00 AM 18.2°F-7.7°C 11.6°F-11.3°C 75% 1.0 mph NNW1.6 kmh NNW 4.0 mph6.4 kmh 30.86 in1045.0 mb 0.00 in0.0 mm 0.00 in0.0 mm 0.00 in0.0 mm
04:15 AM 18.1°F-7.7°C 11.5°F-11.4°C 75% 5.0 mph N8.0 kmh N 5.0 mph8.0 kmh 30.86 in1045.0 mb 0.00 in0.0 mm 0.00 in0.0 mm 0.00 in0.0 mm
04:30 AM 18.0°F-7.8°C 11.4°F-11.4°C 75% 3.0 mph NW4.8 kmh NW 4.0 mph6.4 kmh 30.87 in1045.4 mb 0.00 in0.0 mm 0.00 in0.0 mm 0.00 in0.0 mm
04:45 AM 18.0°F-7.8°C 11.1°F-11.6°C 74% 2.0 mph NNW3.2 kmh NNW 4.0 mph6.4 kmh 30.87 in1045.4 mb 0.00 in0.0 mm 0.00 in0.0 mm 0.00 in0.0 mm
05:00 AM 17.9°F-7.8°C 11.0°F-11.7°C 74% 2.0 mph NNW3.2 kmh NNW 5.0 mph8.0 kmh 30.87 in1045.4 mb 0.00 in0.0 mm 0.00 in0.0 mm 0.00 in0.0 mm
05:15 AM 18.0°F-7.8°C 11.4°F-11.4°C 75% 3.0 mph NNW4.8 kmh NNW 5.0 mph8.0 kmh 30.88 in1045.7 mb 0.00 in0.0 mm 0.00 in0.0 mm 0.00 in0.0 mm
05:30 AM 18.0°F-7.8°C 11.4°F-11.4°C 75% 1.0 mph N1.6 kmh N 4.0 mph6.4 kmh 30.89 in1046.1 mb 0.00 in0.0 mm 0.00 in0.0 mm 0.00 in0.0 mm
05:45 AM 17.9°F-7.8°C 11.0°F-11.7°C 74% Calm Calm 4.0 mph6.4 kmh 30.89 in1046.1 mb 0.00 in0.0 mm 0.00 in0.0 mm 0.00 in0.0 mm
06:00 AM 17.8°F-7.9°C 11.5°F-11.4°C 76% 3.0 mph NW4.8 kmh NW 4.0 mph6.4 kmh 30.90 in1046.4 mb 0.00 in0.0 mm 0.00 in0.0 mm 0.00 in0.0 mm
06:15 AM 17.9°F-7.8°C 11.0°F-11.7°C 74% 3.0 mph NNW4.8 kmh NNW 3.0 mph4.8 kmh 30.90 in1046.4 mb 0.00 in0.0 mm 0.00 in0.0 mm 0.00 in0.0 mm
06:30 AM 17.8°F-7.9°C 11.2°F-11.6°C 75% Calm Calm 2.0 mph3.2 kmh 30.91 in1046.7 mb 0.00 in0.0 mm 0.00 in0.0 mm 0.00 in0.0 mm
06:45 AM 17.8°F-7.9°C 11.2°F-11.6°C 75% Calm Calm 2.0 mph3.2 kmh 30.91 in1046.7 mb 0.00 in0.0 mm 0.00 in0.0 mm 0.00 in0.0 mm
07:00 AM 17.7°F-7.9°C 11.4°F-11.4°C 76% 1.0 mph N1.6 kmh N 3.0 mph4.8 kmh 30.91 in1046.7 mb 0.00 in0.0 mm 0.00 in0.0 mm 0.00 in0.0 mm
07:15 AM 17.8°F-7.9°C 11.2°F-11.6°C 75% 1.0 mph N1.6 kmh N 3.0 mph4.8 kmh 30.90 in1046.4 mb 0.00 in0.0 mm 0.00 in0.0 mm 0.00 in0.0 mm
07:30 AM 17.7°F-7.9°C 11.4°F-11.4°C 76% Calm Calm 2.0 mph3.2 kmh 30.90 in1046.4 mb 0.00 in0.0 mm 0.00 in0.0 mm 0.00 in0.0 mm
07:45 AM 17.5°F-8.1°C 10.6°F-11.9°C 74% Calm Calm -- 30.91 in1046.7 mb 0.00 in0.0 mm 0.00 in0.0 mm 0.00 in0.0 mm
08:00 AM 17.4°F-8.1°C 11.1°F-11.6°C 76% Calm Calm -- 30.90 in1046.4 mb 0.00 in0.0 mm 0.00 in0.0 mm 0.00 in0.0 mm
08:15 AM 17.0°F-8.3°C 11.1°F-11.6°C 77% 3.0 mph NNW4.8 kmh NNW 3.0 mph4.8 kmh 30.90 in1046.4 mb 0.00 in0.0 mm 0.00 in0.0 mm 0.00 in0.0 mm
08:30 AM 17.2°F-8.2°C 11.2°F-11.6°C 77% 1.0 mph NNW1.6 kmh NNW 3.0 mph4.8 kmh 30.90 in1046.4 mb 0.00 in0.0 mm 0.00 in0.0 mm 0.00 in0.0 mm
08:45 AM 17.5°F-8.1°C 11.5°F-11.4°C 77% 2.0 mph NNW3.2 kmh NNW 3.0 mph4.8 kmh 30.91 in1046.7 mb 0.00 in0.0 mm 0.00 in0.0 mm 0.00 in0.0 mm
09:00 AM 17.9°F-7.8°C 11.6°F-11.3°C 76% 2.0 mph NNW3.2 kmh NNW 3.0 mph4.8 kmh 30.91 in1046.7 mb 0.00 in0.0 mm 0.00 in0.0 mm 0.00 in0.0 mm
09:15 AM 18.5°F-7.5°C 11.9°F-11.2°C 75% 4.0 mph NNW6.4 kmh NNW 4.0 mph6.4 kmh 30.92 in1047.1 mb 0.00 in0.0 mm 0.00 in0.0 mm 0.00 in0.0 mm
09:30 AM 18.8°F-7.3°C 11.9°F-11.2°C 74% 3.0 mph NW4.8 kmh NW 4.0 mph6.4 kmh 30.91 in1046.7 mb 0.00 in0.0 mm 0.00 in0.0 mm 0.00 in0.0 mm
09:45 AM 19.4°F-7.0°C 11.9°F-11.2°C 72% 3.0 mph NNW4.8 kmh NNW 5.0 mph8.0 kmh 30.91 in1046.7 mb 0.00 in0.0 mm 0.00 in0.0 mm 0.00 in0.0 mm
10:00 AM 21.4°F-5.9°C 13.2°F-10.4°C 70% 4.0 mph N6.4 kmh N 4.0 mph6.4 kmh 30.92 in1047.1 mb 0.00 in0.0 mm 0.00 in0.0 mm 0.00 in0.0 mm
10:15 AM 22.4°F-5.3°C 12.8°F-10.7°C 66% 2.0 mph NW3.2 kmh NW 4.0 mph6.4 kmh 30.92 in1047.1 mb 0.00 in0.0 mm 0.00 in0.0 mm 0.00 in0.0 mm
10:30 AM 23.1°F-4.9°C 12.8°F-10.7°C 64% 1.0 mph NW1.6 kmh NW 4.0 mph6.4 kmh 30.91 in1046.7 mb 0.00 in0.0 mm 0.00 in0.0 mm 0.00 in0.0 mm
10:45 AM 21.7°F-5.7°C 12.5°F-10.8°C 67% 2.0 mph W3.2 kmh W 6.0 mph9.7 kmh 30.91 in1046.7 mb 0.00 in0.0 mm 0.00 in0.0 mm 0.00 in0.0 mm
11:00 AM 23.1°F-4.9°C 12.8°F-10.7°C 64% Calm Calm 6.0 mph9.7 kmh 30.91 in1046.7 mb 0.00 in0.0 mm 0.00 in0.0 mm 0.00 in0.0 mm
11:15 AM 24.2°F-4.3°C 13.4°F-10.3°C 63% 1.0 mph SW1.6 kmh SW 3.0 mph4.8 kmh 30.90 in1046.4 mb 0.00 in0.0 mm 0.00 in0.0 mm 0.00 in0.0 mm
11:30 AM 24.0°F-4.4°C 13.6°F-10.2°C 64% 2.0 mph SE3.2 kmh SE 3.0 mph4.8 kmh 30.90 in1046.4 mb 0.00 in0.0 mm 0.00 in0.0 mm 0.00 in0.0 mm
11:45 AM 24.0°F-4.4°C 13.3°F-10.4°C 63% 1.0 mph S1.6 kmh S 5.0 mph8.0 kmh 30.89 in1046.1 mb 0.00 in0.0 mm 0.00 in0.0 mm 0.00 in0.0 mm
12:00 PM 23.6°F-4.7°C 14.3°F-9.8°C 67% 4.0 mph S6.4 kmh S 6.0 mph9.7 kmh 30.88 in1045.7 mb 0.00 in0.0 mm 0.00 in0.0 mm 0.00 in0.0 mm
12:15 PM 23.8°F-4.6°C 14.5°F-9.7°C 67% 4.0 mph SW6.4 kmh SW 7.0 mph11.3 kmh 30.87 in1045.4 mb 0.00 in0.0 mm 0.00 in0.0 mm 0.00 in0.0 mm
12:30 PM 23.6°F-4.7°C 14.6°F-9.7°C 68% 5.0 mph SSW8.0 kmh SSW 7.0 mph11.3 kmh 30.86 in1045.0 mb 0.00 in0.0 mm 0.00 in0.0 mm 0.00 in0.0 mm
12:45 PM 22.9°F-5.1°C 14.9°F-9.5°C 71% 4.0 mph S6.4 kmh S 7.0 mph11.3 kmh 30.85 in1044.7 mb 0.00 in0.0 mm 0.00 in0.0 mm 0.00 in0.0 mm
01:00 PM 23.2°F-4.9°C 14.2°F-9.9°C 68% 2.0 mph SSW3.2 kmh SSW 6.0 mph9.7 kmh 30.84 in1044.4 mb 0.00 in0.0 mm 0.00 in0.0 mm 0.00 in0.0 mm
01:15 PM 23.4°F-4.8°C 13.7°F-10.2°C 66% 2.0 mph SE3.2 kmh SE 5.0 mph8.0 kmh 30.83 in1044.0 mb 0.00 in0.0 mm 0.00 in0.0 mm 0.00 in0.0 mm
01:30 PM 23.1°F-4.9°C 14.5°F-9.7°C 69% 1.0 mph S1.6 kmh S 5.0 mph8.0 kmh 30.82 in1043.7 mb 0.00 in0.0 mm 0.00 in0.0 mm 0.00 in0.0 mm
01:45 PM 22.7°F-5.2°C 14.4°F-9.8°C 70% 2.0 mph S3.2 kmh S 6.0 mph9.7 kmh 30.82 in1043.7 mb 0.00 in0.0 mm 0.00 in0.0 mm 0.00 in0.0 mm
02:00 PM 23.1°F-4.9°C 15.1°F-9.4°C 71% 5.0 mph SSW8.0 kmh SSW 6.0 mph9.7 kmh 30.80 in1043.0 mb 0.00 in0.0 mm 0.00 in0.0 mm 0.00 in0.0 mm
02:15 PM 22.7°F-5.2°C 14.7°F-9.6°C 71% 4.0 mph SSW6.4 kmh SSW 5.0 mph8.0 kmh 30.79 in1042.7 mb 0.00 in0.0 mm 0.00 in0.0 mm 0.00 in0.0 mm
02:30 PM 22.6°F-5.2°C 15.0°F-9.4°C 72% 2.0 mph SSE3.2 kmh SSE 5.0 mph8.0 kmh 30.79 in1042.7 mb 0.00 in0.0 mm 0.00 in0.0 mm 0.00 in0.0 mm
02:45 PM 22.2°F-5.4°C 15.2°F-9.3°C 74% 3.0 mph SSE4.8 kmh SSE 6.0 mph9.7 kmh 30.78 in1042.3 mb 0.00 in0.0 mm 0.00 in0.0 mm 0.00 in0.0 mm
03:00 PM 22.0°F-5.6°C 15.6°F-9.1°C 76% 4.0 mph SE6.4 kmh SE 7.0 mph11.3 kmh 30.78 in1042.3 mb 0.00 in0.0 mm 0.00 in0.0 mm 0.00 in0.0 mm
03:15 PM 22.1°F-5.5°C 15.7°F-9.1°C 76% 5.0 mph SE8.0 kmh SE 8.0 mph12.9 kmh 30.77 in1042.0 mb 0.00 in0.0 mm 0.00 in0.0 mm 0.00 in0.0 mm
03:30 PM 22.3°F-5.4°C 16.2°F-8.8°C 77% 3.0 mph SE4.8 kmh SE 9.0 mph14.5 kmh 30.77 in1042.0 mb 0.00 in0.0 mm 0.00 in0.0 mm 0.00 in0.0 mm
03:45 PM 22.2°F-5.4°C 15.8°F-9.0°C 76% 6.0 mph ESE9.7 kmh ESE 8.0 mph12.9 kmh 30.77 in1042.0 mb 0.00 in0.0 mm 0.00 in0.0 mm 0.00 in0.0 mm
04:00 PM 22.2°F-5.4°C 16.1°F-8.8°C 77% 7.0 mph SE11.3 kmh SE 8.0 mph12.9 kmh 30.76 in1041.7 mb 0.00 in0.0 mm 0.00 in0.0 mm 0.00 in0.0 mm
04:15 PM 22.2°F-5.4°C 16.7°F-8.5°C 79% 7.0 mph ESE11.3 kmh ESE 9.0 mph14.5 kmh 30.76 in1041.7 mb 0.00 in0.0 mm 0.00 in0.0 mm 0.00 in0.0 mm
04:30 PM 22.1°F-5.5°C 16.3°F-8.7°C 78% 3.0 mph E4.8 kmh E 7.0 mph11.3 kmh 30.75 in1041.3 mb 0.00 in0.0 mm 0.00 in0.0 mm 0.00 in0.0 mm
04:45 PM 21.9°F-5.6°C 15.8°F-9.0°C 77% 1.0 mph E1.6 kmh E 8.0 mph12.9 kmh 30.74 in1041.0 mb 0.00 in0.0 mm 0.00 in0.0 mm 0.00 in0.0 mm
05:00 PM 22.2°F-5.4°C 17.3°F-8.2°C 81% 8.0 mph SE12.9 kmh SE 8.0 mph12.9 kmh 30.73 in1040.6 mb 0.00 in0.0 mm 0.00 in0.0 mm 0.00 in0.0 mm
05:15 PM 24.0°F-4.4°C 19.0°F-7.2°C 81% 11.0 mph SE17.7 kmh SE 16.0 mph25.7 kmh 30.73 in1040.6 mb 0.00 in0.0 mm 0.00 in0.0 mm 0.00 in0.0 mm
05:30 PM 24.0°F-4.4°C 19.0°F-7.2°C 81% 9.0 mph SE14.5 kmh SE 12.0 mph19.3 kmh 30.73 in1040.6 mb 0.00 in0.0 mm 0.00 in0.0 mm 0.00 in0.0 mm
05:45 PM 24.5°F-4.2°C 18.9°F-7.3°C 79% 11.0 mph SE17.7 kmh SE 16.0 mph25.7 kmh 30.73 in1040.6 mb 0.00 in0.0 mm 0.00 in0.0 mm 0.00 in0.0 mm
06:00 PM 24.4°F-4.2°C 19.1°F-7.2°C 80% 11.0 mph SSE17.7 kmh SSE 13.0 mph20.9 kmh 30.74 in1041.0 mb 0.00 in0.0 mm 0.00 in0.0 mm 0.00 in0.0 mm
06:15 PM 24.4°F-4.2°C 19.7°F-6.8°C 82% 12.0 mph SSE19.3 kmh SSE 14.0 mph22.5 kmh 30.73 in1040.6 mb 0.00 in0.0 mm 0.00 in0.0 mm 0.00 in0.0 mm
06:30 PM 24.5°F-4.2°C 19.5°F-6.9°C 81% 12.0 mph SE19.3 kmh SE 15.0 mph24.1 kmh 30.73 in1040.6 mb 0.00 in0.0 mm 0.00 in0.0 mm 0.00 in0.0 mm
06:45 PM 24.4°F-4.2°C 20.0°F-6.7°C 83% 13.0 mph SSE20.9 kmh SSE 15.0 mph24.1 kmh 30.73 in1040.6 mb 0.00 in0.0 mm 0.00 in0.0 mm 0.00 in0.0 mm
07:00 PM 24.4°F-4.2°C 20.0°F-6.7°C 83% 13.0 mph SSE20.9 kmh SSE 16.0 mph25.7 kmh 30.73 in1040.6 mb 0.00 in0.0 mm 0.00 in0.0 mm 0.00 in0.0 mm
07:15 PM 24.1°F-4.4°C 19.4°F-7.0°C 82% 11.0 mph SE17.7 kmh SE 14.0 mph22.5 kmh 30.72 in1040.3 mb 0.00 in0.0 mm 0.00 in0.0 mm 0.00 in0.0 mm
07:30 PM 24.0°F-4.4°C 19.3°F-7.1°C 82% 10.0 mph SSE16.1 kmh SSE 16.0 mph25.7 kmh 30.72 in1040.3 mb 0.00 in0.0 mm 0.00 in0.0 mm 0.00 in0.0 mm
07:45 PM 23.9°F-4.5°C 19.2°F-7.1°C 82% 11.0 mph SE17.7 kmh SE 16.0 mph25.7 kmh 30.72 in1040.3 mb 0.00 in0.0 mm 0.00 in0.0 mm 0.00 in0.0 mm
08:00 PM 23.8°F-4.6°C 18.8°F-7.3°C 81% 11.0 mph SE17.7 kmh SE 15.0 mph24.1 kmh 30.70 in1039.6 mb 0.00 in0.0 mm 0.00 in0.0 mm 0.00 in0.0 mm
08:15 PM 24.0°F-4.4°C 19.6°F-6.9°C 83% 12.0 mph SE19.3 kmh SE 15.0 mph24.1 kmh 30.71 in1040.0 mb 0.00 in0.0 mm 0.00 in0.0 mm 0.00 in0.0 mm
08:30 PM 24.0°F-4.4°C 19.3°F-7.1°C 82% 14.0 mph S22.5 kmh S 17.0 mph27.4 kmh 30.71 in1040.0 mb 0.00 in0.0 mm 0.00 in0.0 mm 0.00 in0.0 mm
08:45 PM 24.1°F-4.4°C 19.7°F-6.8°C 83% 16.0 mph SE25.7 kmh SE 17.0 mph27.4 kmh 30.69 in1039.3 mb 0.00 in0.0 mm 0.00 in0.0 mm 0.00 in0.0 mm
09:00 PM 23.9°F-4.5°C 19.5°F-6.9°C 83% 13.0 mph SE20.9 kmh SE 17.0 mph27.4 kmh 30.68 in1038.9 mb 0.00 in0.0 mm 0.00 in0.0 mm 0.00 in0.0 mm
09:15 PM 23.8°F-4.6°C 19.4°F-7.0°C 83% 12.0 mph SE19.3 kmh SE 17.0 mph27.4 kmh 30.68 in1038.9 mb 0.00 in0.0 mm 0.00 in0.0 mm 0.00 in0.0 mm
09:36 PM 23.9°F-4.5°C 19.2°F-7.1°C 82% 13.0 mph SE20.9 kmh SE 17.0 mph27.4 kmh 30.66 in1038.3 mb 0.00 in0.0 mm 0.00 in0.0 mm 0.00 in0.0 mm
09:45 PM 23.9°F-4.5°C 19.5°F-6.9°C 83% 15.0 mph SE24.1 kmh SE 18.0 mph29.0 kmh 30.65 in1037.9 mb 0.00 in0.0 mm 0.00 in0.0 mm 0.00 in0.0 mm
10:00 PM 24.0°F-4.4°C 19.6°F-6.9°C 83% 17.0 mph SE27.4 kmh SE 17.0 mph27.4 kmh 30.64 in1037.6 mb 0.00 in0.0 mm 0.00 in0.0 mm 0.00 in0.0 mm
10:15 PM 24.0°F-4.4°C 19.6°F-6.9°C 83% 14.0 mph SE22.5 kmh SE 18.0 mph29.0 kmh 30.63 in1037.3 mb 0.00 in0.0 mm 0.00 in0.0 mm 0.00 in0.0 mm
10:30 PM 24.2°F-4.3°C 19.5°F-6.9°C 82% 16.0 mph SSE25.7 kmh SSE 20.0 mph32.2 kmh 30.63 in1037.3 mb 0.00 in0.0 mm 0.00 in0.0 mm 0.00 in0.0 mm
10:45 PM 24.2°F-4.3°C 19.5°F-6.9°C 82% 17.0 mph SE27.4 kmh SE 19.0 mph30.6 kmh 30.62 in1036.9 mb 0.00 in0.0 mm 0.00 in0.0 mm 0.00 in0.0 mm
11:00 PM 24.2°F-4.3°C 20.4°F-6.4°C 85% 16.0 mph SE25.7 kmh SE 19.0 mph30.6 kmh 30.61 in1036.6 mb 0.00 in0.0 mm 0.00 in0.0 mm 0.00 in0.0 mm
11:15 PM 24.1°F-4.4°C 19.7°F-6.8°C 83% 16.0 mph SE25.7 kmh SE 18.0 mph29.0 kmh 30.60 in1036.2 mb 0.00 in0.0 mm 0.00 in0.0 mm 0.00 in0.0 mm
11:30 PM 24.1°F-4.4°C 20.0°F-6.7°C 84% 15.0 mph SE24.1 kmh SE 19.0 mph30.6 kmh 30.59 in1035.9 mb 0.00 in0.0 mm 0.00 in0.0 mm 0.00 in0.0 mm
11:45 PM 24.1°F-4.4°C 20.0°F-6.7°C 84% 20.0 mph ESE32.2 kmh ESE 21.0 mph33.8 kmh 30.58 in1035.6 mb 0.00 in0.0 mm 0.00 in0.0 mm 0.00 in0.0 mm